Time;durP1;ratioP1;P1;durP2;ratioP2;P2;SDS_P1;SDS_P2;PMS_P1;PMS_P2;Temp;Humidity;BMP_temperature;BMP_pressure;BME280_temperature;BME280_humidity;BME280_pressure;Samples;Min_cycle;Max_cycle;Signal;HPM_P1;HPM_P2
2021/11/19 00:02:03;;;;;;;18.40;9.77;;;9.20;99.90;;;;;;4996255;28;20524;-61
2021/11/19 00:04:33;;;;;;;11.43;7.90;;;9.30;99.90;;;;;;5013527;28;20453;-63
2021/11/19 00:07:02;;;;;;;13.17;7.90;;;9.30;99.90;;;;;;5013793;28;20475;-63
2021/11/19 00:09:32;;;;;;;9.23;8.03;;;9.30;99.90;;;;;;5013595;28;20511;-60
2021/11/19 00:12:01;;;;;;;10.20;7.33;;;9.40;99.90;;;;;;5013810;28;20468;-61
2021/11/19 00:14:29;;;;;;;13.13;8.00;;;9.40;99.90;;;;;;5012832;28;20485;-62
2021/11/19 00:17:05;;;;;;;14.17;7.77;;;9.40;99.90;;;;;;5014249;28;20843;-62
2021/11/19 00:19:34;;;;;;;9.50;8.50;;;9.40;99.90;;;;;;5032599;28;20454;-61
2021/11/19 00:22:03;;;;;;;10.80;7.70;;;9.40;99.90;;;;;;5015199;28;20858;-62
2021/11/19 00:24:32;;;;;;;12.73;8.07;;;9.40;99.90;;;;;;5012772;28;20464;-61
2021/11/19 00:27:00;;;;;;;13.10;8.80;;;9.40;99.90;;;;;;5013142;28;20472;-62
2021/11/19 00:29:29;;;;;;;10.50;8.63;;;9.40;99.90;;;;;;5011709;28;20499;-61
2021/11/19 00:31:57;;;;;;;13.40;8.87;;;9.40;99.90;;;;;;5013422;28;20464;-61
2021/11/19 00:34:26;;;;;;;15.20;9.73;;;9.40;99.90;;;;;;5012977;28;20425;-62
2021/11/19 00:36:56;;;;;;;13.23;8.77;;;9.40;99.90;;;;;;5013323;28;20452;-62
2021/11/19 00:39:24;;;;;;;12.20;8.67;;;9.40;99.90;;;;;;5012867;28;20823;-61
2021/11/19 00:41:56;;;;;;;11.20;9.07;;;9.40;99.90;;;;;;5013601;28;20576;-61
2021/11/19 00:44:25;;;;;;;19.90;9.50;;;9.40;99.90;;;;;;5012647;28;20425;-63
2021/11/19 00:46:54;;;;;;;14.73;9.30;;;9.40;99.90;;;;;;5013329;28;20460;-61
2021/11/19 00:49:26;;;;;;;14.00;8.20;;;9.40;99.90;;;;;;5011378;28;20429;-62
2021/11/19 00:51:56;;;;;;;14.47;9.50;;;9.40;99.90;;;;;;5011933;28;21076;-61
2021/11/19 00:54:26;;;;;;;12.20;8.87;;;9.40;99.90;;;;;;5028509;28;20443;-62
2021/11/19 00:57:00;;;;;;;15.23;9.43;;;9.50;99.90;;;;;;5009172;28;20465;-63
2021/11/19 00:59:31;;;;;;;15.33;9.57;;;9.50;99.90;;;;;;5012513;28;20449;-61
2021/11/19 01:02:07;;;;;;;16.57;10.63;;;9.50;99.90;;;;;;5011895;28;20437;-61
2021/11/19 01:04:36;;;;;;;13.40;9.87;;;9.50;99.90;;;;;;5012912;28;20536;-62
2021/11/19 01:07:06;;;;;;;11.67;8.90;;;9.40;99.90;;;;;;5014978;28;20543;-62
2021/11/19 01:09:37;;;;;;;16.10;9.57;;;9.50;99.90;;;;;;5031180;28;20448;-61
2021/11/19 01:12:10;;;;;;;14.23;8.80;;;9.50;99.90;;;;;;5023182;28;20473;-60
2021/11/19 01:14:40;;;;;;;15.90;9.60;;;9.50;99.90;;;;;;5010935;28;20467;-62
2021/11/19 01:17:12;;;;;;;17.47;10.30;;;9.40;99.90;;;;;;5012917;28;20452;-63
2021/11/19 01:19:49;;;;;;;13.30;8.90;;;9.40;99.90;;;;;;4995078;28;20457;-61
2021/11/19 01:22:22;;;;;;;12.57;9.40;;;9.30;99.90;;;;;;5011427;28;20425;-60
2021/11/19 01:24:51;;;;;;;17.83;9.07;;;9.40;99.90;;;;;;5011857;28;20490;-62
2021/11/19 01:27:22;;;;;;;12.00;8.80;;;9.40;99.90;;;;;;5011192;28;20522;-61
2021/11/19 01:29:51;;;;;;;14.57;9.20;;;9.40;99.90;;;;;;5010754;28;20464;-61
2021/11/19 01:32:24;;;;;;;16.00;9.67;;;9.40;99.90;;;;;;5011455;28;20977;-62
2021/11/19 01:35:08;;;;;;;14.50;9.10;;;9.40;99.90;;;;;;5011866;28;20469;-63
2021/11/19 01:37:57;;;;;;;13.80;9.50;;;9.40;99.90;;;;;;4983938;28;20489;-62
2021/11/19 01:40:45;;;;;;;20.57;10.50;;;9.40;99.90;;;;;;4994397;28;20983;-61
2021/11/19 01:43:30;;;;;;;14.60;10.03;;;9.40;99.90;;;;;;4995549;28;20809;-60
2021/11/19 01:46:04;;;;;;;13.40;9.67;;;9.40;99.90;;;;;;5010340;28;20492;-62
2021/11/19 01:48:39;;;;;;;16.83;11.60;;;9.50;99.90;;;;;;4994735;28;20441;-62
2021/11/19 01:51:15;;;;;;;13.90;9.47;;;9.40;99.90;;;;;;5011899;28;20769;-61
2021/11/19 01:53:47;;;;;;;13.77;9.13;;;9.50;99.90;;;;;;5022612;28;20459;-61
2021/11/19 01:56:20;;;;;;;12.83;9.13;;;9.40;99.90;;;;;;5012557;28;20471;-62
2021/11/19 01:58:54;;;;;;;17.63;9.57;;;9.40;99.90;;;;;;4994447;28;20790;-62
2021/11/19 02:01:25;;;;;;;13.80;9.37;;;9.40;99.90;;;;;;4994071;28;20468;-61
2021/11/19 02:03:57;;;;;;;14.47;9.00;;;9.40;99.90;;;;;;4994423;28;20966;-61
2021/11/19 02:06:27;;;;;;;13.07;9.53;;;9.40;99.90;;;;;;5010956;28;20546;-62
2021/11/19 02:09:09;;;;;;;15.67;9.83;;;9.50;99.90;;;;;;5010669;28;20469;-63
2021/11/19 02:11:48;;;;;;;12.63;8.53;;;9.40;99.90;;;;;;5010640;28;20518;-61
2021/11/19 02:14:35;;;;;;;11.33;9.07;;;9.50;99.90;;;;;;5010090;28;20479;-61
2021/11/19 02:17:06;;;;;;;11.57;8.13;;;9.40;99.90;;;;;;5010740;28;20484;-62
2021/11/19 02:19:37;;;;;;;15.00;8.70;;;9.40;99.90;;;;;;5014312;28;20564;-63
2021/11/19 02:22:12;;;;;;;10.87;8.77;;;9.40;99.90;;;;;;5010452;28;20449;-60
2021/11/19 02:24:47;;;;;;;17.53;8.03;;;9.40;99.90;;;;;;5009922;28;20470;-61
2021/11/19 02:27:29;;;;;;;14.07;8.77;;;9.50;99.90;;;;;;5010570;28;20492;-62
2021/11/19 02:30:04;;;;;;;14.07;8.57;;;9.50;99.90;;;;;;4993498;28;20464;-62
2021/11/19 02:32:40;;;;;;;10.53;7.80;;;9.50;99.90;;;;;;5010768;28;21072;-61
2021/11/19 02:35:11;;;;;;;10.90;8.13;;;9.50;99.90;;;;;;5010102;28;20473;-63
2021/11/19 02:37:42;;;;;;;10.80;8.03;;;9.50;99.90;;;;;;5010548;28;20444;-61
2021/11/19 02:40:13;;;;;;;13.80;8.63;;;9.40;99.90;;;;;;5010118;28;20449;-63
2021/11/19 02:42:48;;;;;;;8.10;7.13;;;9.50;99.90;;;;;;5010418;28;20933;-61
2021/11/19 02:45:20;;;;;;;12.17;7.70;;;9.50;99.90;;;;;;4993249;28;20515;-62
2021/11/19 02:47:51;;;;;;;14.30;7.77;;;9.50;99.90;;;;;;5029191;28;20857;-63
2021/11/19 02:50:22;;;;;;;9.00;6.70;;;9.50;99.90;;;;;;5038559;28;20480;-62
2021/11/19 02:52:57;;;;;;;9.47;7.10;;;9.50;99.90;;;;;;5019501;28;20833;-61
2021/11/19 02:55:29;;;;;;;10.10;7.53;;;9.60;99.90;;;;;;5029325;28;20468;-62
2021/11/19 02:57:59;;;;;;;9.63;8.00;;;9.50;99.90;;;;;;5015541;28;20453;-62
2021/11/19 03:00:37;;;;;;;9.53;7.50;;;9.50;99.90;;;;;;5009817;28;20464;-60
2021/11/19 03:03:06;;;;;;;13.57;6.97;;;9.50;99.90;;;;;;5010437;28;20429;-61
2021/11/19 03:05:34;;;;;;;11.37;7.70;;;9.50;99.90;;;;;;5006378;28;21015;-63
2021/11/19 03:08:02;;;;;;;12.67;7.40;;;9.50;99.90;;;;;;5013838;28;20510;-63
2021/11/19 03:10:33;;;;;;;9.57;7.70;;;9.50;99.90;;;;;;5011070;28;20464;-61
2021/11/19 03:13:05;;;;;;;11.37;7.60;;;9.50;99.90;;;;;;5011575;28;20851;-61
2021/11/19 03:15:37;;;;;;;10.50;6.87;;;9.60;99.90;;;;;;5009291;28;20496;-62
2021/11/19 03:18:06;;;;;;;9.10;7.30;;;9.50;99.90;;;;;;5013302;28;20432;-62
2021/11/19 03:20:34;;;;;;;9.87;6.83;;;9.60;99.90;;;;;;5013164;28;20552;-61
2021/11/19 03:23:03;;;;;;;9.17;5.93;;;9.60;99.90;;;;;;5013624;28;20449;-61
2021/11/19 03:25:37;;;;;;;9.07;6.57;;;9.60;99.90;;;;;;5012837;28;20959;-62
2021/11/19 03:28:10;;;;;;;10.00;6.57;;;9.60;99.90;;;;;;5013201;28;20819;-62
2021/11/19 03:30:42;;;;;;;10.37;8.03;;;9.60;99.90;;;;;;5013156;28;20460;-61
2021/11/19 03:33:13;;;;;;;11.23;7.50;;;9.60;99.90;;;;;;4996997;28;20485;-61
2021/11/19 03:35:43;;;;;;;8.47;7.60;;;9.60;99.90;;;;;;5012819;28;20471;-62
2021/11/19 03:38:12;;;;;;;9.37;7.43;;;9.60;99.90;;;;;;5012333;28;20463;-63
2021/11/19 03:40:42;;;;;;;9.37;6.47;;;9.60;99.90;;;;;;5014498;28;20951;-62
2021/11/19 03:43:16;;;;;;;9.37;7.17;;;9.60;99.90;;;;;;5017978;28;20448;-62
2021/11/19 03:45:52;;;;;;;7.37;6.20;;;9.50;99.90;;;;;;5012584;28;20461;-62
2021/11/19 03:48:22;;;;;;;7.30;5.77;;;9.50;99.90;;;;;;5014277;28;20575;-64
2021/11/19 03:50:53;;;;;;;7.80;5.90;;;9.50;99.90;;;;;;5012913;28;20563;-61
2021/11/19 03:53:24;;;;;;;7.90;6.10;;;9.60;99.90;;;;;;4996469;28;20457;-62
2021/11/19 03:55:55;;;;;;;7.07;5.97;;;9.60;99.90;;;;;;5012336;28;20472;-62
2021/11/19 03:58:25;;;;;;;11.00;5.57;;;9.60;99.90;;;;;;5013017;28;20543;-63
2021/11/19 04:00:58;;;;;;;7.80;5.90;;;9.60;99.90;;;;;;5013685;28;20885;-61
2021/11/19 04:03:27;;;;;;;6.40;5.40;;;9.60;99.90;;;;;;5023954;28;20436;-60
2021/11/19 04:05:57;;;;;;;7.60;5.40;;;9.60;99.90;;;;;;5023686;28;21071;-62
2021/11/19 04:08:25;;;;;;;5.80;4.93;;;9.60;99.90;;;;;;5016435;28;20532;-62
2021/11/19 04:11:02;;;;;;;6.73;5.20;;;9.70;99.90;;;;;;5015565;28;20471;-59
2021/11/19 04:13:30;;;;;;;8.50;5.50;;;9.70;99.90;;;;;;5012080;28;20551;-60
2021/11/19 04:16:05;;;;;;;8.60;6.57;;;9.70;99.90;;;;;;5011975;28;20473;-61
2021/11/19 04:18:33;;;;;;;7.07;6.07;;;9.70;99.90;;;;;;4996093;28;20927;-61
2021/11/19 04:21:03;;;;;;;7.73;6.33;;;9.70;99.90;;;;;;5011829;28;20481;-60
2021/11/19 04:23:32;;;;;;;10.67;6.40;;;9.70;99.90;;;;;;4996346;28;20436;-60
2021/11/19 04:26:03;;;;;;;8.60;6.80;;;9.70;99.90;;;;;;5007466;28;20452;-61
2021/11/19 04:28:32;;;;;;;9.10;6.30;;;9.70;99.90;;;;;;4996398;28;20522;-61
2021/11/19 04:31:06;;;;;;;8.73;7.20;;;9.70;99.90;;;;;;5011922;28;20496;-59
2021/11/19 04:33:38;;;;;;;10.07;6.80;;;9.70;99.90;;;;;;5012308;28;20491;-60
2021/11/19 04:36:07;;;;;;;8.93;7.43;;;9.70;99.90;;;;;;4995327;28;20559;-60
2021/11/19 04:38:36;;;;;;;8.10;6.20;;;9.70;99.90;;;;;;5012206;28;20431;-60
2021/11/19 04:41:06;;;;;;;7.60;5.70;;;9.80;99.90;;;;;;5016689;28;20551;-60
2021/11/19 04:43:37;;;;;;;7.50;6.07;;;9.70;99.90;;;;;;5012291;28;20986;-61
2021/11/19 04:46:08;;;;;;;9.93;7.37;;;9.70;99.90;;;;;;5012511;28;20472;-61
2021/11/19 04:48:40;;;;;;;7.87;6.57;;;9.70;99.90;;;;;;5012293;28;20486;-62
2021/11/19 04:51:15;;;;;;;8.63;7.10;;;9.80;99.90;;;;;;5012755;28;20477;-62
2021/11/19 04:53:45;;;;;;;10.57;6.17;;;9.80;99.90;;;;;;5012919;28;20475;-60
2021/11/19 04:56:14;;;;;;;9.03;6.77;;;9.70;99.90;;;;;;5010768;28;20468;-61
2021/11/19 04:58:43;;;;;;;7.80;6.87;;;9.70;99.90;;;;;;5015366;28;20937;-61
2021/11/19 05:01:16;;;;;;;9.40;6.67;;;9.80;99.90;;;;;;5032164;28;20911;-61
2021/11/19 05:04:08;;;;;;;7.80;6.17;;;9.80;99.90;;;;;;5003288;28;20435;-60
2021/11/19 05:06:37;;;;;;;10.10;7.10;;;9.80;99.90;;;;;;5017816;28;20469;-62
2021/11/19 05:09:07;;;;;;;9.43;6.77;;;9.80;99.90;;;;;;5011715;28;20800;-63
2021/11/19 05:11:38;;;;;;;8.97;6.27;;;9.80;99.90;;;;;;4995455;28;20555;-61
2021/11/19 05:14:11;;;;;;;9.10;6.70;;;9.80;99.90;;;;;;4994205;28;20527;-60
2021/11/19 05:16:41;;;;;;;10.50;6.93;;;9.80;99.90;;;;;;5011289;28;20843;-62
2021/11/19 05:19:09;;;;;;;8.33;7.23;;;9.80;99.90;;;;;;4994823;28;20858;-63
2021/11/19 05:21:38;;;;;;;10.50;7.70;;;9.80;99.90;;;;;;5011545;28;20469;-61
2021/11/19 05:24:08;;;;;;;8.70;7.60;;;9.80;99.90;;;;;;5011241;28;20424;-60
2021/11/19 05:26:38;;;;;;;8.80;6.70;;;9.70;99.90;;;;;;4994903;28;20472;-61
2021/11/19 05:29:07;;;;;;;9.77;6.17;;;9.70;99.90;;;;;;5011082;28;20444;-63
2021/11/19 05:31:37;;;;;;;10.03;7.53;;;9.70;99.90;;;;;;5011138;28;20433;-62
2021/11/19 05:34:13;;;;;;;8.27;7.40;;;9.70;99.90;;;;;;4994058;28;20819;-62
2021/11/19 05:36:43;;;;;;;8.23;5.90;;;9.70;99.90;;;;;;5012562;28;20483;-63
2021/11/19 05:39:12;;;;;;;11.80;6.73;;;9.70;99.90;;;;;;5011584;28;20855;-63
2021/11/19 05:41:45;;;;;;;7.53;6.27;;;9.70;99.90;;;;;;5020330;28;20444;-61
2021/11/19 05:44:14;;;;;;;9.07;5.57;;;9.70;99.90;;;;;;5030178;28;20798;-61
2021/11/19 05:46:54;;;;;;;6.10;5.50;;;9.80;99.90;;;;;;5014433;28;20451;-63
2021/11/19 05:49:26;;;;;;;6.30;5.57;;;9.80;99.90;;;;;;5025846;28;20491;-62
2021/11/19 05:52:00;;;;;;;7.23;5.70;;;9.80;99.90;;;;;;4994761;28;20420;-61
2021/11/19 05:54:31;;;;;;;6.20;5.30;;;9.80;99.90;;;;;;5010525;28;20452;-61
2021/11/19 05:57:01;;;;;;;6.93;6.23;;;9.80;99.90;;;;;;5012085;28;20461;-62
2021/11/19 05:59:29;;;;;;;6.17;4.77;;;9.80;99.90;;;;;;5010696;28;20583;-63
2021/11/19 06:02:11;;;;;;;5.83;4.80;;;9.80;99.90;;;;;;5012123;28;20907;-61
2021/11/19 06:04:59;;;;;;;7.13;4.63;;;9.80;99.90;;;;;;5010066;28;20572;-61
2021/11/19 06:07:32;;;;;;;6.37;4.90;;;9.80;99.90;;;;;;5011050;28;20532;-63
2021/11/19 06:10:02;;;;;;;6.07;4.50;;;9.70;99.90;;;;;;5017483;28;20460;-63
2021/11/19 06:12:39;;;;;;;5.37;4.87;;;9.80;99.90;;;;;;5020113;28;20468;-62
2021/11/19 06:15:12;;;;;;;6.40;5.17;;;9.80;99.90;;;;;;5017963;28;21001;-61
2021/11/19 06:17:44;;;;;;;5.30;4.60;;;9.80;99.90;;;;;;5031370;28;20424;-63
2021/11/19 06:20:15;;;;;;;7.67;6.00;;;9.80;99.90;;;;;;5029377;28;20507;-61
2021/11/19 06:22:50;;;;;;;5.80;5.13;;;9.80;99.90;;;;;;5030598;28;21097;-61
2021/11/19 06:25:22;;;;;;;7.20;5.50;;;9.80;99.90;;;;;;5013097;28;20490;-61
2021/11/19 06:27:52;;;;;;;6.50;5.20;;;9.80;99.90;;;;;;5004272;28;20468;-61
2021/11/19 06:30:23;;;;;;;7.33;6.50;;;9.80;99.90;;;;;;5010498;28;20522;-62
2021/11/19 06:32:52;;;;;;;7.03;6.20;;;9.80;99.90;;;;;;5021177;28;20425;-60
2021/11/19 06:35:23;;;;;;;7.83;6.10;;;9.90;99.90;;;;;;5029541;28;20476;-60
2021/11/19 06:37:52;;;;;;;7.47;5.87;;;9.90;99.90;;;;;;5031178;28;20452;-62
2021/11/19 06:40:36;;;;;;;8.23;6.83;;;9.80;99.90;;;;;;5013592;28;21001;-64
2021/11/19 06:43:17;;;;;;;7.07;6.33;;;9.80;99.90;;;;;;5014233;28;20874;-61
2021/11/19 06:45:54;;;;;;;6.80;6.10;;;9.90;99.90;;;;;;5010899;28;20472;-61
2021/11/19 06:48:58;;;;;;;5.53;5.03;;;9.90;99.90;;;;;;4982036;28;20427;-63
2021/11/19 06:51:47;;;;;;;7.63;6.53;;;9.90;99.90;;;;;;5014775;28;20916;-62
2021/11/19 06:54:41;;;;;;;7.27;6.57;;;9.80;99.90;;;;;;5016795;28;20547;-60
2021/11/19 06:57:19;;;;;;;7.00;6.17;;;9.80;99.90;;;;;;5034309;28;20467;-62
2021/11/19 06:59:48;;;;;;;7.30;6.50;;;9.80;99.90;;;;;;5016759;28;20470;-63
2021/11/19 07:02:19;;;;;;;7.37;6.23;;;9.80;99.90;;;;;;5000784;28;20934;-62
2021/11/19 07:04:47;;;;;;;7.87;6.03;;;9.80;99.90;;;;;;5033973;28;20966;-61
2021/11/19 07:07:19;;;;;;;5.90;5.30;;;9.80;99.90;;;;;;5004846;28;21006;-60
2021/11/19 07:09:48;;;;;;;6.57;5.87;;;9.80;99.90;;;;;;5007735;28;20463;-62
2021/11/19 07:12:18;;;;;;;6.47;5.83;;;9.80;99.90;;;;;;5008234;28;20476;-61
2021/11/19 07:14:55;;;;;;;6.60;5.27;;;9.90;99.90;;;;;;5013186;28;20468;-60
2021/11/19 07:17:23;;;;;;;6.77;5.50;;;9.90;99.90;;;;;;5013814;28;20527;-61
2021/11/19 07:19:52;;;;;;;8.00;5.50;;;9.90;99.90;;;;;;5013090;28;20544;-63
2021/11/19 07:22:22;;;;;;;7.60;5.10;;;9.90;99.90;;;;;;5013521;28;20451;-61
2021/11/19 07:25:02;;;;;;;4.93;4.43;;;9.90;99.90;;;;;;4996364;28;20492;-61
2021/11/19 07:27:30;;;;;;;5.80;4.83;;;9.90;99.90;;;;;;5014753;28;20492;-61
2021/11/19 07:29:58;;;;;;;5.50;4.53;;;9.90;99.90;;;;;;5012646;28;20465;-62
2021/11/19 07:32:45;;;;;;;5.43;4.83;;;9.90;99.90;;;;;;5014561;28;20468;-61
2021/11/19 07:35:32;;;;;;;6.40;5.10;;;9.90;99.90;;;;;;5018547;28;20508;-61
2021/11/19 07:38:27;;;;;;;4.73;4.33;;;9.90;99.90;;;;;;4985956;28;20433;-62
2021/11/19 07:41:12;;;;;;;5.43;5.00;;;10.00;99.90;;;;;;5012923;28;20565;-63
2021/11/19 07:43:54;;;;;;;5.23;4.73;;;9.90;99.90;;;;;;5013294;28;20433;-61
2021/11/19 07:46:58;;;;;;;5.73;5.13;;;10.00;99.90;;;;;;5025707;28;20463;-61
2021/11/19 07:49:26;;;;;;;4.37;3.80;;;10.00;99.90;;;;;;5014822;28;20953;-62
2021/11/19 07:51:58;;;;;;;5.67;4.90;;;10.00;99.90;;;;;;5005342;28;20462;-62
2021/11/19 07:54:29;;;;;;;5.57;5.00;;;10.00;99.90;;;;;;5024009;28;20498;-62
2021/11/19 07:56:57;;;;;;;6.67;4.90;;;10.00;99.90;;;;;;5029041;28;20924;-62
2021/11/19 07:59:28;;;;;;;8.10;4.87;;;10.00;99.90;;;;;;5031881;28;20440;-61
2021/11/19 08:01:59;;;;;;;7.50;4.70;;;10.00;99.90;;;;;;5016287;28;20439;-63
2021/11/19 08:04:30;;;;;;;4.63;4.07;;;10.00;99.90;;;;;;5022911;28;20509;-61
2021/11/19 08:07:05;;;;;;;6.17;5.30;;;10.00;99.90;;;;;;5027790;28;20463;-61
2021/11/19 08:09:50;;;;;;;7.03;5.50;;;10.00;99.90;;;;;;5021370;28;20558;-62
2021/11/19 08:12:39;;;;;;;4.70;4.30;;;10.00;99.90;;;;;;5021532;28;20547;-61
2021/11/19 08:15:25;;;;;;;4.30;3.77;;;10.10;99.90;;;;;;5012578;28;20463;-61
2021/11/19 08:17:56;;;;;;;5.50;4.20;;;10.10;99.90;;;;;;5014146;28;20464;-62
2021/11/19 08:20:36;;;;;;;5.00;4.20;;;10.10;99.90;;;;;;5012518;28;20854;-62
2021/11/19 08:23:05;;;;;;;5.53;4.40;;;10.10;99.90;;;;;;5027829;28;20458;-61
2021/11/19 08:25:36;;;;;;;5.17;4.67;;;10.10;99.90;;;;;;5014563;28;20499;-61
2021/11/19 08:28:26;;;;;;;5.63;4.37;;;10.10;99.90;;;;;;5015101;28;20447;-63
2021/11/19 08:30:54;;;;;;;6.13;5.10;;;10.10;99.90;;;;;;5013107;28;20461;-62
2021/11/19 08:33:23;;;;;;;5.40;4.27;;;10.20;99.90;;;;;;5015174;28;20437;-61
2021/11/19 08:35:51;;;;;;;5.97;4.17;;;10.20;99.90;;;;;;5030033;28;20468;-61
2021/11/19 08:38:22;;;;;;;7.43;4.73;;;10.20;99.90;;;;;;5022487;28;20497;-60
2021/11/19 08:40:53;;;;;;;9.83;4.67;;;10.30;99.90;;;;;;5032621;28;20461;-63
2021/11/19 08:43:24;;;;;;;4.77;4.37;;;10.30;99.90;;;;;;5015528;28;20449;-61
2021/11/19 08:45:54;;;;;;;4.93;4.53;;;10.30;99.90;;;;;;5013252;28;20472;-61
2021/11/19 08:48:25;;;;;;;4.90;4.40;;;10.30;99.90;;;;;;5030103;28;20467;-60
2021/11/19 08:50:55;;;;;;;4.57;4.17;;;10.40;99.90;;;;;;5030523;28;20478;-60
2021/11/19 08:53:24;;;;;;;4.70;4.10;;;10.40;99.90;;;;;;5028252;28;20474;-59
2021/11/19 08:55:57;;;;;;;4.67;3.90;;;10.40;99.90;;;;;;5031688;28;20478;-61
2021/11/19 08:58:28;;;;;;;4.40;4.00;;;10.50;99.90;;;;;;5023972;28;20527;-63
2021/11/19 09:00:59;;;;;;;5.20;4.53;;;10.50;99.90;;;;;;5020828;28;20468;-63
2021/11/19 09:03:30;;;;;;;6.30;4.93;;;10.50;99.90;;;;;;5013924;28;20433;-62
2021/11/19 09:05:58;;;;;;;5.07;4.47;;;10.50;99.90;;;;;;4994419;28;20473;-62
2021/11/19 09:08:29;;;;;;;4.93;4.20;;;10.50;99.90;;;;;;5024335;28;20428;-63
2021/11/19 09:11:00;;;;;;;5.07;4.60;;;10.50;99.90;;;;;;5030569;28;20456;-63
2021/11/19 09:13:29;;;;;;;5.10;3.97;;;10.50;99.90;;;;;;4996408;28;20454;-63
2021/11/19 09:15:58;;;;;;;4.43;4.03;;;10.50;99.90;;;;;;4994407;28;20475;-63
2021/11/19 09:18:33;;;;;;;4.90;4.40;;;10.50;99.90;;;;;;4995311;28;20425;-63
2021/11/19 09:21:12;;;;;;;4.73;3.77;;;10.60;99.90;;;;;;5017877;28;20476;-63
2021/11/19 09:23:43;;;;;;;3.30;3.00;;;10.60;99.90;;;;;;5023637;28;20441;-63
2021/11/19 09:26:16;;;;;;;4.80;4.33;;;10.50;99.90;;;;;;5022908;28;21073;-63
2021/11/19 09:28:48;;;;;;;3.23;2.93;;;10.60;99.90;;;;;;5012367;28;20437;-63
2021/11/19 09:31:19;;;;;;;3.73;3.43;;;10.60;99.90;;;;;;5019211;28;20456;-63
2021/11/19 09:33:50;;;;;;;3.43;3.13;;;10.60;99.90;;;;;;5030799;28;20494;-62
2021/11/19 09:36:19;;;;;;;4.30;3.57;;;10.70;99.90;;;;;;5029026;28;20504;-61
2021/11/19 09:38:48;;;;;;;3.27;2.90;;;10.70;99.90;;;;;;4995048;28;20427;-62
2021/11/19 09:41:45;;;;;;;3.50;3.00;;;10.70;99.90;;;;;;5018351;28;20567;-63
2021/11/19 09:45:02;;;;;;;3.20;3.00;;;10.80;99.90;;;;;;5010410;28;20910;-61
2021/11/19 09:47:49;;;;;;;2.87;2.67;;;10.70;99.90;;;;;;5012509;28;20452;-62
2021/11/19 09:51:03;;;;;;;3.30;3.00;;;10.80;99.90;;;;;;5004879;28;20468;-63
2021/11/19 09:54:16;;;;;;;4.27;3.67;;;10.80;99.90;;;;;;4969057;28;20440;-61
2021/11/19 09:57:11;;;;;;;5.87;3.50;;;10.90;99.90;;;;;;5026027;28;20469;-61
2021/11/19 09:59:44;;;;;;;4.50;3.03;;;10.90;99.90;;;;;;5011813;28;20523;-61
2021/11/19 10:02:44;;;;;;;3.10;2.80;;;10.90;99.90;;;;;;4994679;28;20468;-62
2021/11/19 10:05:30;;;;;;;3.77;3.37;;;11.00;99.90;;;;;;5009849;28;20478;-62
2021/11/19 10:08:08;;;;;;;3.70;3.30;;;11.00;99.90;;;;;;5012358;28;20440;-61
2021/11/19 10:10:56;;;;;;;4.20;3.50;;;11.00;99.90;;;;;;5011591;28;20472;-64
2021/11/19 10:13:33;;;;;;;3.80;3.50;;;10.90;99.90;;;;;;5012222;28;20453;-63
2021/11/19 10:16:23;;;;;;;4.43;4.03;;;11.00;99.90;;;;;;5011184;28;20808;-61
2021/11/19 10:18:57;;;;;;;4.90;4.50;;;11.00;99.90;;;;;;5011843;28;20467;-61
2021/11/19 10:21:29;;;;;;;4.20;3.83;;;;;;;;;;5011530;28;20567;-63
2021/11/19 10:24:14;;;;;;;6.70;5.33;;;10.90;99.90;;;;;;5020645;28;20507;-61
2021/11/19 10:26:44;;;;;;;4.40;3.73;;;10.90;99.90;;;;;;5011102;28;20511;-61
2021/11/19 10:29:20;;;;;;;4.73;4.23;;;10.90;99.90;;;;;;5016644;28;20436;-61
2021/11/19 10:31:49;;;;;;;4.47;4.07;;;10.90;99.90;;;;;;5035279;28;20428;-62
2021/11/19 10:34:28;;;;;;;4.87;4.33;;;10.90;99.90;;;;;;5017232;28;20511;-61
2021/11/19 10:37:22;;;;;;;5.17;4.60;;;10.90;99.90;;;;;;5027639;28;20486;-62
2021/11/19 10:40:24;;;;;;;5.10;4.53;;;10.90;99.90;;;;;;5025425;28;20468;-64
2021/11/19 10:43:24;;;;;;;5.03;4.53;;;10.90;99.90;;;;;;5022561;28;20515;-63
2021/11/19 10:46:23;;;;;;;6.20;4.53;;;11.00;99.90;;;;;;5001200;28;20821;-63
2021/11/19 10:49:11;;;;;;;4.53;4.10;;;11.00;99.90;;;;;;5035158;28;20499;-62
2021/11/19 10:52:10;;;;;;;5.20;4.70;;;11.00;99.90;;;;;;5015473;28;20445;-63
2021/11/19 10:55:24;;;;;;;7.57;4.83;;;11.10;99.90;;;;;;5014429;28;20484;-63
2021/11/19 10:58:28;;;;;;;5.07;4.30;;;11.00;99.90;;;;;;5013893;28;21001;-63
2021/11/19 11:01:11;;;;;;;6.53;4.63;;;11.00;99.90;;;;;;5014495;28;21025;-63
2021/11/19 11:03:55;;;;;;;4.30;3.80;;;11.10;99.90;;;;;;5014780;28;20931;-63
2021/11/19 11:06:37;;;;;;;5.00;4.53;;;11.10;99.90;;;;;;5014532;28;20530;-63
2021/11/19 11:09:24;;;;;;;6.33;5.00;;;11.10;99.90;;;;;;5015151;28;20812;-62
2021/11/19 11:11:55;;;;;;;5.00;4.50;;;11.10;99.90;;;;;;5013676;28;20471;-63
2021/11/19 11:14:30;;;;;;;5.13;4.40;;;11.20;99.90;;;;;;5014590;28;20430;-61
2021/11/19 11:17:08;;;;;;;5.40;4.60;;;11.20;99.90;;;;;;5014981;28;20452;-61
2021/11/19 11:19:46;;;;;;;5.90;5.10;;;11.10;99.90;;;;;;4996724;28;20551;-61
2021/11/19 11:22:17;;;;;;;5.83;4.77;;;11.20;99.90;;;;;;5014677;28;20529;-62
2021/11/19 11:24:53;;;;;;;5.80;5.20;;;11.20;99.90;;;;;;4996172;28;20461;-62
2021/11/19 11:27:39;;;;;;;6.47;5.70;;;11.20;99.90;;;;;;4997475;28;20459;-61
2021/11/19 11:30:11;;;;;;;7.03;5.57;;;11.30;99.90;;;;;;5014099;28;20464;-63
2021/11/19 11:33:05;;;;;;;8.47;6.97;;;11.20;99.90;;;;;;5033119;28;20476;-63
2021/11/19 11:35:41;;;;;;;8.00;7.00;;;11.30;99.90;;;;;;5026948;28;20646;-63
2021/11/19 11:38:23;;;;;;;7.20;6.50;;;11.30;99.90;;;;;;5013430;28;20457;-62
2021/11/19 11:41:15;;;;;;;9.03;7.10;;;11.40;99.90;;;;;;5013887;28;20463;-64
2021/11/19 11:43:46;;;;;;;7.90;7.20;;;11.40;99.90;;;;;;5034233;28;20536;-63
2021/11/19 11:46:23;;;;;;;9.63;6.80;;;11.40;99.90;;;;;;5033490;28;20526;-62
2021/11/19 11:49:03;;;;;;;8.43;7.23;;;11.40;99.90;;;;;;5033287;28;20426;-62
2021/11/19 11:51:46;;;;;;;8.50;7.20;;;11.40;99.90;;;;;;5013238;28;20580;-63
2021/11/19 11:54:24;;;;;;;8.30;7.30;;;11.40;99.90;;;;;;5023933;28;20507;-63
2021/11/19 11:57:18;;;;;;;8.50;7.57;;;11.40;99.90;;;;;;4997115;28;20479;-62
2021/11/19 11:59:58;;;;;;;9.00;7.47;;;11.50;99.90;;;;;;5013092;28;20460;-64
2021/11/19 12:02:46;;;;;;;9.00;7.50;;;11.40;99.90;;;;;;5016331;28;20794;-63
2021/11/19 12:05:32;;;;;;;8.97;8.00;;;11.50;99.90;;;;;;5015281;28;20479;-62
2021/11/19 12:08:23;;;;;;;7.70;6.80;;;11.50;99.90;;;;;;5013845;28;20433;-62
2021/11/19 12:11:04;;;;;;;7.83;7.03;;;11.50;99.90;;;;;;5020713;28;20475;-62
2021/11/19 12:13:37;;;;;;;7.53;6.83;;;11.50;99.90;;;;;;5014301;28;20981;-64
2021/11/19 12:16:15;;;;;;;7.67;6.50;;;11.50;99.90;;;;;;5013098;28;20467;-61
2021/11/19 12:18:48;;;;;;;8.40;7.60;;;11.50;99.90;;;;;;5013498;28;20468;-63
2021/11/19 12:21:28;;;;;;;13.50;6.80;;;11.50;99.90;;;;;;5013243;28;20561;-63
2021/11/19 12:24:02;;;;;;;8.23;7.27;;;11.50;99.90;;;;;;5013530;28;20425;-65
2021/11/19 12:26:49;;;;;;;9.60;8.30;;;11.50;99.90;;;;;;5028228;28;20470;-62
2021/11/19 12:29:26;;;;;;;10.37;8.53;;;11.50;99.90;;;;;;5013076;28;20454;-62
2021/11/19 12:32:03;;;;;;;8.70;7.90;;;11.40;99.90;;;;;;5013778;28;20428;-62
2021/11/19 12:34:34;;;;;;;11.30;8.60;;;11.40;99.90;;;;;;5012883;28;20457;-63
2021/11/19 12:37:09;;;;;;;8.83;7.90;;;11.40;99.90;;;;;;5016324;28;21043;-61
2021/11/19 12:39:40;;;;;;;11.00;8.73;;;11.40;99.90;;;;;;5026462;28;20473;-59
2021/11/19 12:42:18;;;;;;;10.13;9.20;;;11.40;99.90;;;;;;5023985;28;20438;-61
2021/11/19 12:45:04;;;;;;;10.90;8.70;;;11.30;99.90;;;;;;5007094;28;20476;-60
2021/11/19 12:48:06;;;;;;;10.90;8.27;;;11.40;99.90;;;;;;5032633;28;20437;-59
2021/11/19 12:50:37;;;;;;;10.60;9.60;;;11.30;99.90;;;;;;5030774;28;20464;-61
2021/11/19 12:53:50;;;;;;;9.30;8.30;;;11.40;99.90;;;;;;4995847;28;20463;-61
2021/11/19 12:56:23;;;;;;;9.87;8.83;;;11.30;99.90;;;;;;4997325;28;20505;-60
2021/11/19 12:59:09;;;;;;;12.43;10.07;;;11.30;99.90;;;;;;5013193;28;20479;-59
2021/11/19 13:01:42;;;;;;;9.43;8.53;;;11.30;99.90;;;;;;4995508;28;20603;-61
2021/11/19 13:04:32;;;;;;;10.53;9.30;;;11.40;99.90;;;;;;5012242;28;20458;-60
2021/11/19 13:07:29;;;;;;;10.50;9.40;;;11.40;99.90;;;;;;5012853;28;20789;-59
2021/11/19 13:10:00;;;;;;;9.87;8.63;;;11.30;99.90;;;;;;5012188;28;20475;-60
2021/11/19 13:12:37;;;;;;;12.93;10.30;;;11.40;99.90;;;;;;5012685;28;20453;-60
2021/11/19 13:15:34;;;;;;;11.40;10.10;;;11.30;99.90;;;;;;5011884;28;20509;-60
2021/11/19 13:18:26;;;;;;;11.23;9.90;;;11.30;99.90;;;;;;4968278;28;20477;-62
2021/11/19 13:20:58;;;;;;;11.53;9.57;;;11.30;99.90;;;;;;5011613;28;20994;-63
2021/11/19 13:23:46;;;;;;;14.40;10.10;;;11.30;99.90;;;;;;5013017;28;20443;-63
2021/11/19 13:26:44;;;;;;;12.10;9.43;;;11.20;99.90;;;;;;5011532;28;20493;-62
2021/11/19 13:29:48;;;;;;;11.43;9.63;;;11.30;99.90;;;;;;5011984;28;20480;-62
2021/11/19 13:32:57;;;;;;;9.57;8.50;;;11.30;99.90;;;;;;5010139;28;20439;-63
2021/11/19 13:36:05;;;;;;;11.30;9.30;;;11.40;99.90;;;;;;4994467;28;20504;-62
2021/11/19 13:39:11;;;;;;;11.23;9.33;;;11.40;99.90;;;;;;5011336;28;20557;-60